Flight Track Log - Related Links

Times and Time Zones

All times are in EDT time to prevent confusion due to time zone crossing. See the SWA2975 flight status page for this flight to view local times or setup timezone preferences in your user account.

Time Position Orientation Groundspeed Altitude Reporting Facility
EDT Latitude Longitude Course Direction KTS MPH feet Rate Location/Type
Fri 03:54:10 PM 39.8650 -104.6810 253° West 16 18  Level FlightAware ADS-B
Fri 03:54:26 PM 39.8640 -104.6820 218° Southwest 15 17 1,117 Level FlightAware ADS-B
Fri 03:54:42 PM 39.8640 -104.6840 270° West 15 17 1,174 Level FlightAware ADS-B
Fri 03:54:54 PM 39.8630 -104.6840 180° South 17 20 1,236 Level FlightAware ADS-B
Fri 03:55:22 PM 39.8600 -104.6840 180° South 20 23 1,287 Level FlightAware ADS-B
Fri 03:55:38 PM 39.8590 -104.6840 180° South 22 25 1,425 Level FlightAware ADS-B
Fri 03:55:58 PM 39.8570 -104.6840 180° South 24 28 1,518 Level FlightAware ADS-B
Fri 03:56:28 PM 39.8530 -104.6840 180° South 23 26 1,653 Level FlightAware ADS-B
Fri 03:56:58 PM 39.8500 -104.6840 180° South 28 32 1,908 Level FlightAware ADS-B
Fri 03:57:35 PM 39.8450 -104.6840 180° South 28 32 2,255 Level FlightAware ADS-B
Fri 03:59:43 PM 39.8410 -104.7290 263° West 176 203 6,200 2,763 Climbing FlightAware ADS-B
Fri 04:00:07 PM 39.8430 -104.7560 276° West 194 223 7,000 2,025 Climbing FlightAware ADS-B
Fri 04:01:03 PM 39.8710 -104.8200 300° West 246 283 8,900 2,000 Climbing FlightAware ADS-B
Fri 04:01:22 PM 39.8830 -104.8440 303° West 269 310 9,500 1,929 Climbing FlightAware ADS-B
Fri 04:01:59 PM 39.9100 -104.9010 302° West 309 356 10,700 2,000 Climbing FlightAware ADS-B
Fri 04:02:43 PM 39.9400 -104.9760 298° West 344 396 12,200 2,659 Climbing FlightAware ADS-B
Fri 04:03:27 PM 39.9560 -105.0680 283° West 353 406 14,600 3,000 Climbing FlightAware ADS-B
Fri 04:04:09 PM 39.9660 -105.1590 278° West 370 426 16,500 2,854 Climbing FlightAware ADS-B
Fri 04:04:49 PM 39.9760 -105.2480 278° West 374 430 18,500 2,780 Climbing FlightAware ADS-B
Fri 04:05:31 PM 39.9840 -105.3410 276° West 384 442 20,300 2,500 Climbing FlightAware ADS-B
Fri 04:06:01 PM 39.9830 -105.4120 269° West 390 449 21,500 2,025 Climbing FlightAware ADS-B
Fri 04:06:51 PM 39.9790 -105.5310 268° West 409 471 23,000 1,884 Climbing FlightAware ADS-B
Fri 04:07:27 PM 39.9760 -105.6220 268° West 416 479 24,200 2,100 Climbing FlightAware ADS-B
Fri 04:08:11 PM 39.9730 -105.7330 268° West 418 481 25,800 1,909 Climbing FlightAware ADS-B
Fri 04:08:55 PM 39.9710 -105.8440 269° West 426 490 27,000 1,568 Climbing FlightAware ADS-B
Fri 04:09:39 PM 39.9770 -105.9580 274° West 435 501 28,100 1,465 Climbing FlightAware ADS-B
Fri 04:10:21 PM 39.9830 -106.0690 274° West 442 509 29,100 1,425 Climbing FlightAware ADS-B
Fri 04:10:59 PM 39.9880 -106.1700 274° West 449 517 30,000 1,481 Climbing FlightAware ADS-B
Fri 04:11:38 PM 39.9940 -106.2720 274° West 450 518 31,000 1,725 Climbing FlightAware ADS-B
Fri 04:12:19 PM 40.0140 -106.3760 284° West 443 510 32,300 1,870 Climbing FlightAware ADS-B
Fri 04:12:55 PM 40.0370 -106.4730 287° West 441 507 33,400 1,703 Climbing FlightAware ADS-B
Fri 04:13:33 PM 40.0600 -106.5700 287° West 439 505 34,400 1,643 Climbing FlightAware ADS-B
Fri 04:14:19 PM 40.0860 -106.6840 287° West 437 503 35,700 1,171 Climbing FlightAware ADS-B
Fri 04:14:55 PM 40.0940 -106.7780 276° West 431 496 36,000 234 Climbing FlightAware ADS-B
Fri 04:15:36 PM 40.0950 -106.8450 271° West 432 497 36,000  Level FlightAware ADS-B
Fri 04:16:52 PM 40.0980 -107.0790 271° West 431 496 36,000  Level FlightAware ADS-B
Fri 04:17:31 PM 40.1000 -107.1800 272° West 422 486 36,000  Level FlightAware ADS-B
Fri 04:18:18 PM 40.1010 -107.3020 271° West 422 486 36,000  Level FlightAware ADS-B
Fri 04:19:00 PM 40.1020 -107.4080 271° West 420 483 36,000  Level FlightAware ADS-B
Fri 04:19:41 PM 40.1030 -107.5100 271° West 419 482 36,000  Level FlightAware ADS-B
Fri 04:20:22 PM 40.1040 -107.6170 271° West 419 482 36,000  Level FlightAware ADS-B
Fri 04:21:05 PM 40.1050 -107.7220 271° West 420 483 36,000  Level FlightAware ADS-B
Fri 04:21:37 PM 40.1060 -107.8020 271° West 421 484 36,000  Level FlightAware ADS-B
Fri 04:22:24 PM 40.1060 -107.9230 270° West 421 484 36,000  Level FlightAware ADS-B
Fri 04:23:02 PM 40.1070 -108.0210 271° West 421 484 36,000  Level FlightAware ADS-B
Fri 04:23:55 PM 40.1070 -108.1540 270° West 420 483 36,000  Level FlightAware ADS-B
Fri 04:24:35 PM 40.1080 -108.2550 271° West 419 482 36,000  Level FlightAware ADS-B
Fri 04:25:17 PM 40.1080 -108.3610 270° West 418 481 36,000  Level FlightAware ADS-B
Fri 04:25:59 PM 40.1080 -108.4680 270° West 416 479 36,000  Level FlightAware ADS-B
Fri 04:26:36 PM 40.1080 -108.5600 270° West 415 478 36,000  Level FlightAware ADS-B
Fri 04:27:31 PM 40.1080 -108.6980 270° West 414 476 36,000  Level FlightAware ADS-B
Fri 04:28:16 PM 40.1080 -108.8080 270° West 414 476 36,000  Level FlightAware ADS-B
Fri 04:29:06 PM 40.1100 -108.9340 271° West 413 475 36,000  Level FlightAware ADS-B
Fri 04:29:51 PM 40.1140 -109.0470 273° West 413 475 36,000  Level FlightAware ADS-B
Fri 04:31:00 PM 40.1200 -109.2160 273° West 414 476 36,000  Level FlightAware ADS-B
Fri 04:31:38 PM 40.1240 -109.3120 273° West 418 481 36,000 -366 Level FlightAware ADS-B
Fri 04:32:22 PM 40.1280 -109.4270 273° West 418 481 35,500 -776 Descending FlightAware ADS-B
Fri 04:33:03 PM 40.1310 -109.5270 272° West 412 474 34,900 -947 Descending FlightAware ADS-B
Fri 04:33:38 PM 40.1340 -109.6120 273° West 410 472 34,300 -987 Descending FlightAware ADS-B
Fri 04:34:22 PM 40.1370 -109.7210 272° West 408 470 33,600 -1,037 Descending FlightAware ADS-B
Fri 04:34:59 PM 40.1400 -109.8130 272° West 404 465 32,900 -1,012 Descending FlightAware ADS-B
Fri 04:35:45 PM 40.1430 -109.9220 272° West 399 459 32,200 -970 Descending FlightAware ADS-B
Fri 04:36:38 PM 40.1470 -110.0490 272° West 386 444 31,300 -980 Descending FlightAware ADS-B
Fri 04:37:23 PM 40.1490 -110.1530 271° West 397 457 30,600 -907 Descending FlightAware ADS-B
Fri 04:38:04 PM 40.1480 -110.2550 269° West 419 482 30,000 -674 Descending FlightAware ADS-B
Fri 04:38:52 PM 40.1470 -110.3760 269° West 413 475 29,600 -808 Descending FlightAware ADS-B
Fri 04:39:48 PM 40.1460 -110.5040 269° West 386 444 28,600 -653 Descending FlightAware ADS-B
Fri 04:40:33 PM 40.1450 -110.5910 269° West 385 443 28,500 -1,185 Descending FlightAware ADS-B
Fri 04:41:09 PM 40.1440 -110.6840 269° West 347 399 27,000 -1,216 Descending FlightAware ADS-B
Fri 04:41:47 PM 40.1430 -110.7520 269° West 347 399 27,000 -1,013 Level FlightAware ADS-B
Fri 04:42:26 PM 40.1420 -110.8390 269° West 344 396 25,700 -1,000 Descending FlightAware ADS-B
Fri 04:43:11 PM 40.1410 -110.9160 269° West 344 396 25,600 -57 Descending FlightAware ADS-B
Fri 04:44:11 PM 40.1400 -111.0220 269° West 344 396 25,600  Level FlightAware ADS-B
Fri 04:44:47 PM 40.1390 -111.0850 269° West 344 396 25,600  Level FlightAware ADS-B
Fri 04:45:47 PM 40.1370 -111.1920 269° West 344 396 25,600  Level FlightAware ADS-B
Fri 04:46:25 PM 40.1360 -111.2590 269° West 344 396 25,600 -2,351 Level FlightAware ADS-B
Fri 04:49:52 PM 40.1830 -111.6840 278° West 300 345 16,000 -2,491 Descending FlightAware ADS-B
Fri 04:50:50 PM 40.2360 -111.7590 313° West 293 337 14,600 -857 Descending FlightAware ADS-B
Fri 04:51:30 PM 40.2680 -111.8020 314° West 293 337 14,600 -1,435 Level FlightAware ADS-B
Fri 04:52:22 PM 40.3280 -111.8690 320° Northwest 292 336 12,400 -2,059 Descending FlightAware ADS-B
Fri 04:53:12 PM 40.3830 -111.9220 324° Northwest 293 337 11,100 -1,612 Descending FlightAware ADS-B
Fri 04:53:29 PM 40.4050 -111.9300 345° North 299 344 10,600 -1,650 Descending FlightAware ADS-B
Fri 04:53:52 PM 40.4360 -111.9340 354° North 295 339 10,000 -1,309 Descending FlightAware ADS-B
Fri 04:54:24 PM 40.4770 -111.9380 356° North 283 326 9,400 -964 Descending FlightAware ADS-B
Fri 04:54:48 PM 40.5100 -111.9420 355° North 263 303 9,100 -632 Descending FlightAware ADS-B
Fri 04:55:02 PM 40.5260 -111.9440 355° North 251 289 9,000 -947 Descending FlightAware ADS-B
Fri 04:55:26 PM 40.5530 -111.9470 355° North 244 281 8,500 -1,174 Descending FlightAware ADS-B
Fri 04:55:48 PM 40.5780 -111.9500 355° North 239 275 8,100 -1,222 Descending FlightAware ADS-B
Fri 04:56:20 PM 40.6130 -111.9540 355° North 230 265 7,400 -1,286 Descending FlightAware ADS-B
Fri 04:56:44 PM 40.6370 -111.9570 355° North 223 257 6,900 -1,154 Descending FlightAware ADS-B
Fri 04:57:12 PM 40.6650 -111.9600 355° North 200 230 6,400 -1,038 Descending FlightAware ADS-B
Fri 04:57:36 PM 40.6860 -111.9630 354° North 187 215 6,000 -1,050 Descending FlightAware ADS-B
Fri 04:57:52 PM 40.6990 -111.9640 357° North 173 199 5,700 -878 Descending FlightAware ADS-B
Fri 04:58:17 PM 40.7180 -111.9660 355° North 164 189 5,400 -840 Descending FlightAware ADS-B
Fri 04:58:42 PM 40.7370 -111.9690 353° North 164 189 5,000 -941 Descending FlightAware ADS-B
Fri 04:59:08 PM 40.7560 -111.9710 355° North 163 188 4,600 -476 Descending FlightAware ADS-B
Fri 04:59:45 PM 40.7820 -111.9740 355° North 165 190 4,500 -162 Descending FlightAware ADS-B
Fri 05:07:00 PM 40.7833 -111.9667 North  Level FlightAware Approximate

Login

Don't have an account? Register now (free) for customized features, flight alerts, and more!